Evans Mills, New York
Current Conditions -  °F | °C
As of 4:58 AM on Friday 28 Nov 2014 (Local Time) from KGTB Reporting Station
Clear Clear  
Wind Chill: 17°   Ceiling: Unl
Heat Index: 17°   Visibility: 10mi
Dew Point: 16°   Wind: 3mph
Humidity: 97%   Direction: 270°W
Pressure: 30.1"   Gusts: NA
Location:  44.09°N, 75.81°W
Report Text: KGTB 280958Z AUTO 27003KT 10SM CLR M09/M09 A3010 RMK AO2 SLP205 T10861090
Loading
Personal Weather Stations






























Interactive Weather Map New forecast layout! Learn more

10-Day Weather Forecast

Advertisements
Track Severe Weather on mobile